Time;durP1;ratioP1;P1;durP2;ratioP2;P2;SDS_P1;SDS_P2;PMS_P1;PMS_P2;Temp;Humidity;BMP_temperature;BMP_pressure;BME280_temperature;BME280_humidity;BME280_pressure;Samples;Min_cycle;Max_cycle;Signal;HPM_P1;HPM_P2
2022/05/25 00:00:10;;;;;;;;;;;9.10;99.90;;;;;;5095993;28;20011;-61
2022/05/25 00:02:36;;;;;;;;;;;9.10;99.90;;;;;;5077477;28;20019;-59
2022/05/25 00:05:01;;;;;;;;;;;9.10;99.90;;;;;;5070058;28;20019;-60
2022/05/25 00:07:27;;;;;;;;;;;9.20;99.90;;;;;;5066363;28;20356;-61
2022/05/25 00:09:52;;;;;;;;;;;9.10;99.90;;;;;;5073309;28;20286;-60
2022/05/25 00:12:18;;;;;;;;;;;9.10;99.90;;;;;;5076010;28;19920;-62
2022/05/25 00:14:43;;;;;;;;;;;9.20;99.90;;;;;;5074237;28;19986;-61
2022/05/25 00:17:09;;;;;;;;;;;9.20;99.90;;;;;;5072318;28;20380;-60
2022/05/25 00:22:18;;;;;;;;;;;9.50;99.90;;;;;;5076491;28;19920;-61
2022/05/25 00:24:44;;;;;;;;;;;9.40;99.90;;;;;;5068980;28;19932;-61
2022/05/25 00:27:09;;;;;;;;;;;9.30;99.90;;;;;;5080925;28;19928;-59
2022/05/25 00:29:36;;;;;;;;;;;9.30;99.90;;;;;;5070972;28;20368;-61
2022/05/25 00:32:03;;;;;;;;;;;9.40;99.90;;;;;;5076607;28;20451;-59
2022/05/25 00:34:29;;;;;;;;;;;9.30;99.90;;;;;;5082435;28;19928;-62
2022/05/25 00:36:54;;;;;;;;;;;9.20;99.90;;;;;;5090034;28;20019;-59
2022/05/25 00:39:21;;;;;;;;;;;9.20;99.90;;;;;;5083982;28;19920;-59
2022/05/25 00:41:46;;;;;;;;;;;9.30;99.90;;;;;;5076547;28;20544;-60
2022/05/25 00:44:11;;;;;;;;;;;9.40;99.90;;;;;;5072004;28;19959;-60
2022/05/25 00:46:37;;;;;;;;;;;9.50;99.90;;;;;;5076045;28;19920;-59
2022/05/25 00:49:05;;;;;;;;;;;9.50;99.90;;;;;;5083126;28;19927;-59
2022/05/25 00:51:35;;;;;;;;;;;9.40;99.90;;;;;;5076736;28;20016;-60
2022/05/25 00:54:02;;;;;;;;;;;9.40;99.90;;;;;;5083164;28;20253;-59
2022/05/25 00:56:29;;;;;;;;;;;9.40;99.90;;;;;;5078071;28;19932;-61
2022/05/25 00:59:03;;;;;;;;;;;9.20;99.90;;;;;;5070619;28;19920;-60
2022/05/25 01:01:29;;;;;;;;;;;9.20;99.90;;;;;;5073772;28;19924;-59
2022/05/25 01:03:55;;;;;;;;;;;9.20;99.90;;;;;;5077090;28;19923;-60
2022/05/25 01:06:23;;;;;;;;;;;9.20;99.90;;;;;;5084149;28;19989;-60
2022/05/25 01:08:55;;;;;;;;;;;9.10;99.90;;;;;;5070237;28;19934;-61
2022/05/25 01:11:33;;;;;;;;;;;9.30;99.90;;;;;;5072904;28;19921;-59
2022/05/25 01:14:11;;;;;;;;;;;9.20;99.90;;;;;;5069777;28;19919;-59
2022/05/25 01:16:51;;;;;;;;;;;9.30;99.90;;;;;;5065079;28;19934;-60
2022/05/25 01:19:38;;;;;;;;;;;9.30;99.90;;;;;;5070840;28;20450;-62
2022/05/25 01:22:19;;;;;;;;;;;9.20;99.90;;;;;;5073226;28;19920;-60
2022/05/25 01:24:55;;;;;;;;;;;9.20;99.90;;;;;;5075161;28;19923;-62
2022/05/25 01:27:27;;;;;;;;;;;9.20;99.90;;;;;;5070194;28;20445;-60
2022/05/25 01:30:03;;;;;;;;;;;9.10;99.90;;;;;;5069617;28;20285;-60
2022/05/25 01:32:34;;;;;;;;;;;9.10;99.90;;;;;;5076070;28;19920;-60
2022/05/25 01:35:05;;;;;;;;;;;9.10;99.90;;;;;;5076765;28;20157;-62
2022/05/25 01:37:36;;;;;;;;;;;9.20;99.90;;;;;;5073494;28;19954;-60
2022/05/25 01:40:08;;;;;;;;;;;9.20;99.90;;;;;;5071774;28;19927;-59
2022/05/25 01:42:40;;;;;;;;;;;9.20;99.90;;;;;;5076989;28;19980;-60
2022/05/25 01:45:07;;;;;;;;;;;9.20;99.90;;;;;;5075041;28;19925;-60
2022/05/25 01:47:33;;;;;;;;;;;9.20;99.90;;;;;;5069909;28;19974;-60
2022/05/25 01:50:02;;;;;;;;;;;9.20;99.90;;;;;;5074391;28;19920;-62
2022/05/25 01:52:29;;;;;;;;;;;9.10;99.90;;;;;;5076513;28;19920;-61
2022/05/25 01:54:56;;;;;;;;;;;9.20;99.90;;;;;;5074389;28;19943;-59
2022/05/25 01:57:24;;;;;;;;;;;9.30;99.90;;;;;;5080400;28;19924;-60
2022/05/25 01:59:49;;;;;;;;;;;9.20;99.90;;;;;;5083178;28;20287;-59
2022/05/25 02:05:00;;;;;;;;;;;9.30;99.90;;;;;;5078817;28;20369;-61
2022/05/25 02:07:29;;;;;;;;;;;9.30;99.90;;;;;;5073395;28;20014;-60
2022/05/25 02:10:03;;;;;;;;;;;9.20;99.90;;;;;;5074848;28;19928;-60
2022/05/25 02:12:28;;;;;;;;;;;9.20;99.90;;;;;;5078374;28;19924;-61
2022/05/25 02:15:06;;;;;;;;;;;9.20;99.90;;;;;;5080856;28;19997;-59
2022/05/25 02:17:46;;;;;;;;;;;9.20;99.90;;;;;;5073077;28;19931;-60
2022/05/25 02:20:18;;;;;;;;;;;9.20;99.90;;;;;;5075186;28;19954;-60
2022/05/25 02:22:51;;;;;;;;;;;9.20;99.90;;;;;;5073692;28;19920;-60
2022/05/25 02:25:35;;;;;;;;;;;9.20;99.90;;;;;;5077614;28;19932;-59
2022/05/25 02:28:05;;;;;;;;;;;9.30;99.90;;;;;;5079765;28;19930;-59
2022/05/25 02:30:33;;;;;;;;;;;9.30;99.90;;;;;;5077302;28;19955;-60
2022/05/25 02:33:05;;;;;;;;;;;9.30;99.90;;;;;;5071523;28;20011;-61
2022/05/25 02:35:32;;;;;;;;;;;9.30;99.90;;;;;;5083259;28;20348;-60
2022/05/25 02:37:59;;;;;;;;;;;9.20;99.90;;;;;;5076084;28;19920;-59
2022/05/25 02:40:26;;;;;;;;;;;9.30;99.90;;;;;;5081157;28;19920;-59
2022/05/25 02:42:52;;;;;;;;;;;9.20;99.90;;;;;;5085402;28;19946;-60
2022/05/25 02:45:17;;;;;;;;;;;9.30;99.90;;;;;;5089963;28;19928;-60
2022/05/25 02:47:44;;;;;;;;;;;9.30;99.90;;;;;;5089706;28;20276;-59
2022/05/25 02:50:09;;;;;;;;;;;9.20;99.90;;;;;;5081451;28;19926;-60
2022/05/25 02:52:35;;;;;;;;;;;9.10;99.90;;;;;;5070140;28;20331;-62
2022/05/25 02:55:01;;;;;;;;;;;9.20;99.90;;;;;;5070928;28;19920;-60
2022/05/25 02:57:26;;;;;;;;;;;9.20;99.90;;;;;;5082731;28;19985;-59
2022/05/25 02:59:51;;;;;;;;;;;9.20;99.90;;;;;;5073237;28;19920;-60
2022/05/25 03:02:17;;;;;;;;;;;9.10;99.90;;;;;;5078690;28;19927;-59
2022/05/25 03:04:42;;;;;;;;;;;9.10;99.90;;;;;;5080287;28;20656;-60
2022/05/25 03:07:08;;;;;;;;;;;9.10;99.90;;;;;;5077355;28;20284;-59
2022/05/25 03:09:37;;;;;;;;;;;9.10;99.90;;;;;;5069429;28;19921;-59
2022/05/25 03:12:03;;;;;;;;;;;9.00;99.90;;;;;;5073699;28;19960;-59
2022/05/25 03:14:29;;;;;;;;;;;9.10;99.90;;;;;;5077149;28;19956;-59
2022/05/25 03:16:55;;;;;;;;;;;9.10;99.90;;;;;;5077197;28;19924;-60
2022/05/25 03:19:21;;;;;;;;;;;9.10;99.90;;;;;;5079323;28;20061;-60
2022/05/25 03:21:46;;;;;;;;;;;9.00;99.90;;;;;;5071778;28;19951;-60
2022/05/25 03:24:12;;;;;;;;;;;9.10;99.90;;;;;;5083184;28;19927;-60
2022/05/25 03:26:38;;;;;;;;;;;9.00;99.90;;;;;;5071415;28;19920;-61
2022/05/25 03:29:03;;;;;;;;;;;9.00;99.90;;;;;;5076058;28;20420;-60
2022/05/25 03:31:29;;;;;;;;;;;9.00;99.90;;;;;;5090024;28;19963;-59
2022/05/25 03:33:54;;;;;;;;;;;9.00;99.90;;;;;;5082957;28;19931;-59
2022/05/25 03:36:20;;;;;;;;;;;9.00;99.90;;;;;;5082340;28;19963;-60
2022/05/25 03:38:45;;;;;;;;;;;9.00;99.90;;;;;;5073371;28;19924;-60
2022/05/25 03:41:11;;;;;;;;;;;8.90;99.90;;;;;;5075394;28;19964;-60
2022/05/25 03:43:37;;;;;;;;;;;9.00;99.90;;;;;;5081441;28;19919;-61
2022/05/25 03:46:03;;;;;;;;;;;9.00;99.90;;;;;;5079555;28;19925;-61
2022/05/25 03:48:28;;;;;;;;;;;9.00;99.90;;;;;;5069039;28;19924;-59
2022/05/25 03:50:54;;;;;;;;;;;9.00;99.90;;;;;;5071279;28;20395;-59
2022/05/25 03:53:19;;;;;;;;;;;9.00;99.90;;;;;;5077445;28;20355;-60
2022/05/25 03:55:45;;;;;;;;;;;9.00;99.90;;;;;;5075696;28;20501;-59
2022/05/25 03:58:10;;;;;;;;;;;9.00;99.90;;;;;;5075187;28;20015;-61
2022/05/25 04:00:36;;;;;;;;;;;9.00;99.90;;;;;;5085243;28;20333;-59
2022/05/25 04:03:02;;;;;;;;;;;9.10;99.90;;;;;;5076210;28;19935;-59
2022/05/25 04:05:29;;;;;;;;;;;9.10;99.90;;;;;;5072769;28;20276;-60
2022/05/25 04:07:56;;;;;;;;;;;9.10;99.90;;;;;;5072670;28;20387;-59
2022/05/25 04:10:22;;;;;;;;;;;9.10;99.90;;;;;;5069727;28;20304;-59
2022/05/25 04:12:48;;;;;;;;;;;9.10;99.90;;;;;;5071776;28;20303;-59
2022/05/25 04:15:15;;;;;;;;;;;9.20;99.90;;;;;;5080450;28;19927;-60
2022/05/25 04:17:41;;;;;;;;;;;9.20;99.90;;;;;;5070112;28;19988;-59
2022/05/25 04:20:08;;;;;;;;;;;9.20;99.90;;;;;;5069128;28;19994;-62
2022/05/25 04:22:35;;;;;;;;;;;9.20;99.90;;;;;;5071132;28;19928;-61
2022/05/25 04:25:07;;;;;;;;;;;9.20;99.90;;;;;;5087623;28;20585;-60
2022/05/25 04:27:33;;;;;;;;;;;9.30;99.90;;;;;;5071555;28;19928;-61
2022/05/25 04:29:59;;;;;;;;;;;9.30;99.90;;;;;;5076502;28;19978;-60
2022/05/25 04:32:24;;;;;;;;;;;9.40;99.90;;;;;;5086577;28;20372;-60
2022/05/25 04:34:50;;;;;;;;;;;9.40;99.90;;;;;;5078245;28;19920;-59
2022/05/25 04:39:59;;;;;;;;;;;9.50;99.90;;;;;;5090523;28;19995;-59
2022/05/25 04:42:29;;;;;;;;;;;9.60;99.90;;;;;;5068474;28;19920;-60
2022/05/25 04:45:00;;;;;;;;;;;9.70;99.90;;;;;;5078447;28;20019;-60
2022/05/25 04:47:33;;;;;;;;;;;9.80;99.90;;;;;;5089620;28;19920;-61
2022/05/25 04:50:00;;;;;;;;;;;9.80;99.90;;;;;;5084528;28;19981;-61
2022/05/25 04:52:26;;;;;;;;;;;9.90;99.90;;;;;;5075017;28;19920;-62
2022/05/25 04:54:52;;;;;;;;;;;10.00;99.90;;;;;;5082123;28;19931;-60
2022/05/25 04:57:20;;;;;;;;;;;10.10;99.90;;;;;;5068154;28;19960;-60
2022/05/25 04:59:49;;;;;;;;;;;10.10;99.90;;;;;;5068700;28;20420;-60
2022/05/25 05:02:15;;;;;;;;;;;10.20;99.90;;;;;;5076163;28;19956;-60
2022/05/25 05:04:41;;;;;;;;;;;10.30;99.90;;;;;;5075182;28;20253;-61
2022/05/25 05:07:06;;;;;;;;;;;10.50;99.90;;;;;;5073119;28;19964;-59
2022/05/25 05:09:32;;;;;;;;;;;10.60;99.90;;;;;;5072547;28;19931;-60
2022/05/25 05:11:58;;;;;;;;;;;10.60;99.90;;;;;;5074031;28;19947;-60
2022/05/25 05:14:23;;;;;;;;;;;10.80;99.90;;;;;;5079813;28;20481;-60
2022/05/25 05:16:54;;;;;;;;;;;10.90;99.90;;;;;;5077100;28;19921;-60
2022/05/25 05:19:20;;;;;;;;;;;10.90;99.90;;;;;;5069526;28;19966;-60
2022/05/25 05:21:45;;;;;;;;;;;11.10;99.90;;;;;;5070708;28;19963;-59
2022/05/25 05:24:11;;;;;;;;;;;11.20;99.90;;;;;;5076520;28;20390;-60
2022/05/25 05:26:36;;;;;;;;;;;11.30;99.90;;;;;;5076362;28;20296;-60
2022/05/25 05:29:02;;;;;;;;;;;11.50;99.90;;;;;;5076844;28;19926;-62
2022/05/25 05:31:27;;;;;;;;;;;11.50;99.90;;;;;;5068814;28;19928;-60
2022/05/25 05:33:54;;;;;;;;;;;11.60;99.90;;;;;;5070740;28;19928;-62
2022/05/25 05:36:25;;;;;;;;;;;11.80;99.90;;;;;;5068296;28;19969;-61
2022/05/25 05:39:03;;;;;;;;;;;11.90;99.90;;;;;;5071698;28;19920;-60
2022/05/25 05:41:31;;;;;;;;;;;12.10;99.90;;;;;;5070448;28;19920;-60
2022/05/25 05:43:57;;;;;;;;;;;12.20;99.90;;;;;;5072432;28;20384;-61
2022/05/25 05:46:23;;;;;;;;;;;12.30;99.90;;;;;;5073446;28;20052;-60
2022/05/25 05:48:49;;;;;;;;;;;12.50;99.90;;;;;;5075215;28;19920;-60
2022/05/25 05:51:15;;;;;;;;;;;12.60;99.90;;;;;;5068752;28;19978;-62
2022/05/25 05:53:40;;;;;;;;;;;12.70;99.90;;;;;;5071682;28;19924;-60
2022/05/25 05:56:06;;;;;;;;;;;12.90;99.90;;;;;;5069226;28;20372;-61
2022/05/25 05:58:32;;;;;;;;;;;13.10;99.90;;;;;;5076623;28;19939;-61
2022/05/25 06:00:57;;;;;;;;;;;13.20;99.90;;;;;;5072150;28;19950;-61
2022/05/25 06:03:23;;;;;;;;;;;13.30;99.90;;;;;;5073619;28;19935;-61
2022/05/25 06:05:48;;;;;;;;;;;13.30;99.90;;;;;;5076266;28;19928;-60
2022/05/25 06:08:16;;;;;;;;;;;13.40;99.90;;;;;;5068251;28;19920;-62
2022/05/25 06:10:42;;;;;;;;;;;13.60;99.90;;;;;;5082337;28;19924;-61
2022/05/25 06:13:07;;;;;;;;;;;13.70;99.60;;;;;;5077015;28;19920;-60
2022/05/25 06:21:02;;;;;;;;;;;14.10;98.50;;;;;;5075574;28;19924;-60
2022/05/25 06:23:27;;;;;;;;;;;14.10;97.80;;;;;;5069801;28;19928;-61
2022/05/25 06:25:53;;;;;;;;;;;14.30;97.40;;;;;;5070763;28;20265;-59
2022/05/25 06:28:19;;;;;;;;;;;14.30;97.00;;;;;;5070015;28;19921;-62
2022/05/25 06:30:44;;;;;;;;;;;14.60;96.90;;;;;;5072373;28;19921;-60
2022/05/25 06:33:10;;;;;;;;;;;14.80;96.20;;;;;;5070069;28;20073;-60
2022/05/25 06:35:36;;;;;;;;;;;15.00;94.10;;;;;;5076914;28;19964;-61
2022/05/25 06:38:01;;;;;;;;;;;15.00;95.10;;;;;;5073852;28;20256;-61
2022/05/25 06:40:27;;;;;;;;;;;15.10;94.90;;;;;;5081697;28;19931;-61
2022/05/25 06:42:52;;;;;;;;;;;15.30;95.40;;;;;;5091418;28;20291;-61
2022/05/25 06:45:18;;;;;;;;;;;15.60;93.60;;;;;;5085745;28;19935;-61
2022/05/25 06:47:44;;;;;;;;;;;15.50;92.00;;;;;;5083781;28;19921;-61
2022/05/25 06:50:09;;;;;;;;;;;15.60;91.50;;;;;;5079307;28;19920;-60
2022/05/25 06:52:35;;;;;;;;;;;15.40;91.90;;;;;;5088945;28;19927;-60
2022/05/25 06:55:00;;;;;;;;;;;15.70;90.20;;;;;;5095241;28;20367;-60
2022/05/25 06:57:26;;;;;;;;;;;15.80;90.50;;;;;;5087939;28;19920;-61
2022/05/25 06:59:52;;;;;;;;;;;16.10;91.50;;;;;;5078054;28;19977;-61
2022/05/25 07:02:17;;;;;;;;;;;16.10;90.90;;;;;;5091876;28;20295;-61
2022/05/25 07:04:43;;;;;;;;;;;16.30;89.40;;;;;;5080440;28;19947;-60
2022/05/25 07:07:08;;;;;;;;;;;16.30;90.00;;;;;;5074416;28;20268;-61
2022/05/25 07:09:36;;;;;;;;;;;16.40;85.70;;;;;;5080545;28;19966;-60
2022/05/25 07:12:02;;;;;;;;;;;16.60;84.50;;;;;;5095299;28;19934;-61
2022/05/25 07:14:27;;;;;;;;;;;16.30;85.10;;;;;;5083693;28;20042;-61
2022/05/25 07:16:55;;;;;;;;;;;16.70;88.00;;;;;;5089631;28;19924;-61
2022/05/25 07:19:20;;;;;;;;;;;16.70;89.20;;;;;;5094421;28;20010;-62
2022/05/25 07:21:46;;;;;;;;;;;16.90;84.50;;;;;;5079954;28;20003;-62
2022/05/25 07:24:11;;;;;;;;;;;17.00;83.50;;;;;;5075432;28;19928;-60
2022/05/25 07:26:37;;;;;;;;;;;17.10;80.90;;;;;;5082748;28;19924;-61
2022/05/25 07:29:03;;;;;;;;;;;17.40;82.90;;;;;;5083863;28;19920;-60
2022/05/25 07:31:35;;;;;;;;;;;17.60;80.10;;;;;;5093591;28;19927;-61
2022/05/25 07:34:00;;;;;;;;;;;17.60;76.70;;;;;;5089131;28;19920;-62
2022/05/25 07:36:26;;;;;;;;;;;17.60;81.80;;;;;;5091814;28;20438;-61
2022/05/25 07:38:54;;;;;;;;;;;17.50;76.10;;;;;;5077207;28;19928;-62
2022/05/25 07:41:20;;;;;;;;;;;17.50;71.40;;;;;;5091230;28;19924;-64
2022/05/25 07:43:47;;;;;;;;;;;17.60;76.10;;;;;;5094747;28;19920;-63
2022/05/25 07:46:12;;;;;;;;;;;17.80;72.50;;;;;;5094341;28;20287;-62
2022/05/25 07:48:38;;;;;;;;;;;18.10;70.40;;;;;;5077936;28;19958;-62
2022/05/25 07:51:04;;;;;;;;;;;17.90;70.10;;;;;;5074007;28;20409;-62
2022/05/25 07:56:15;;;;;;;;;;;18.20;67.70;;;;;;5083040;28;19925;-62
2022/05/25 07:58:41;;;;;;;;;;;18.30;70.40;;;;;;5093329;28;19926;-62
2022/05/25 08:01:10;;;;;;;;;;;18.60;70.60;;;;;;5082588;28;20287;-62
2022/05/25 08:06:19;;;;;;;;;;;18.70;65.70;;;;;;5080275;28;19928;-62
2022/05/25 08:08:45;;;;;;;;;;;19.00;65.10;;;;;;5082132;28;19924;-62
2022/05/25 08:11:11;;;;;;;;;;;19.40;67.70;;;;;;5091041;28;20784;-61
2022/05/25 08:13:40;;;;;;;;;;;19.60;62.40;;;;;;5075594;28;20288;-61
2022/05/25 08:16:05;;;;;;;;;;;19.40;64.80;;;;;;5078027;28;19920;-63
2022/05/25 08:18:31;;;;;;;;;;;19.60;63.10;;;;;;5078101;28;19928;-63
2022/05/25 08:20:57;;;;;;;;;;;19.70;62.90;;;;;;5084107;28;19983;-63
2022/05/25 08:23:22;;;;;;;;;;;19.70;61.70;;;;;;5093153;28;20405;-61
2022/05/25 08:25:48;;;;;;;;;;;19.60;58.90;;;;;;5087898;28;19925;-62
2022/05/25 08:28:14;;;;;;;;;;;19.90;61.60;;;;;;5089487;28;19991;-61
2022/05/25 08:30:41;;;;;;;;;;;20.10;59.40;;;;;;5085422;28;19920;-62
2022/05/25 08:33:07;;;;;;;;;;;20.40;58.50;;;;;;5089750;28;20248;-63
2022/05/25 08:35:32;;;;;;;;;;;20.70;58.50;;;;;;5061897;28;19928;-61
2022/05/25 08:37:58;;;;;;;;;;;21.10;56.90;;;;;;5087215;28;19920;-63
2022/05/25 08:40:24;;;;;;;;;;;21.40;53.20;;;;;;5092609;28;19920;-63
2022/05/25 08:42:49;;;;;;;;;;;21.40;56.00;;;;;;5091683;28;19926;-62
2022/05/25 08:45:16;;;;;;;;;;;21.80;56.00;;;;;;5091157;28;20434;-63
2022/05/25 08:47:46;;;;;;;;;;;22.00;56.10;;;;;;5092370;28;19919;-63
2022/05/25 08:50:11;;;;;;;;;;;21.70;51.40;;;;;;5090544;28;19992;-62
2022/05/25 08:52:37;;;;;;;;;;;22.20;50.40;;;;;;5089871;28;20352;-63
2022/05/25 08:55:04;;;;;;;;;;;22.10;53.70;;;;;;5090337;28;20362;-63
2022/05/25 08:57:35;;;;;;;;;;;21.70;52.00;;;;;;5090667;28;19920;-61
2022/05/25 09:00:02;;;;;;;;;;;20.80;52.10;;;;;;5090721;28;20002;-64
2022/05/25 09:02:28;;;;;;;;;;;20.40;53.40;;;;;;5091644;28;19937;-62
2022/05/25 09:05:02;;;;;;;;;;;20.00;52.60;;;;;;5089829;28;20163;-61
2022/05/25 09:07:47;;;;;;;;;;;20.60;54.20;;;;;;5089126;28;19965;-62
2022/05/25 09:10:13;;;;;;;;;;;20.90;55.00;;;;;;5081879;28;19924;-63
2022/05/25 09:12:43;;;;;;;;;;;21.10;54.10;;;;;;5070210;28;20353;-62
2022/05/25 09:15:08;;;;;;;;;;;21.10;53.70;;;;;;5075721;28;20547;-62
2022/05/25 09:17:41;;;;;;;;;;;20.90;53.40;;;;;;5086628;28;19930;-61
2022/05/25 09:20:07;;;;;;;;;;;20.90;55.50;;;;;;5078361;28;19930;-61
2022/05/25 09:22:32;;;;;;;;;;;20.70;54.60;;;;;;5070798;28;19982;-61
2022/05/25 09:25:00;;;;;;;;;;;20.50;56.30;;;;;;5088551;28;19959;-62
2022/05/25 09:27:32;;;;;;;;;;;20.20;54.40;;;;;;5094364;28;19972;-62
2022/05/25 09:30:00;;;;;;;;;;;20.20;55.90;;;;;;5095192;28;19927;-61
2022/05/25 09:32:42;;;;;;;;;;;19.70;57.80;;;;;;5072105;28;19920;-61
2022/05/25 09:35:11;;;;;;;;;;;19.50;56.80;;;;;;5070598;28;20571;-61
2022/05/25 09:37:55;;;;;;;;;;;19.40;55.90;;;;;;5083636;28;19921;-61
2022/05/25 09:40:24;;;;;;;;;;;19.50;58.20;;;;;;5082797;28;19984;-62
2022/05/25 09:42:52;;;;;;;;;;;19.70;58.90;;;;;;5091900;28;19928;-62
2022/05/25 09:45:17;;;;;;;;;;;20.10;58.20;;;;;;5091556;28;19924;-61
2022/05/25 09:47:44;;;;;;;;;;;19.90;55.90;;;;;;5089527;28;19920;-62
2022/05/25 09:50:25;;;;;;;;;;;20.10;57.30;;;;;;5078871;28;19924;-61
2022/05/25 09:52:51;;;;;;;;;;;19.60;53.80;;;;;;5088100;28;20007;-62
2022/05/25 09:55:25;;;;;;;;;;;19.70;55.90;;;;;;5088833;28;19924;-64
2022/05/25 09:57:53;;;;;;;;;;;20.00;56.50;;;;;;5072272;28;19920;-62
2022/05/25 10:00:23;;;;;;;;;;;19.90;56.00;;;;;;5081975;28;19920;-62
2022/05/25 10:02:51;;;;;;;;;;;20.60;55.70;;;;;;5082653;28;19920;-62
2022/05/25 10:05:19;;;;;;;;;;;20.60;53.80;;;;;;5087634;28;20374;-61
2022/05/25 10:07:49;;;;;;;;;;;20.60;54.60;;;;;;5089795;28;19920;-62
2022/05/25 10:10:22;;;;;;;;;;;20.60;53.20;;;;;;5090224;28;20262;-63
2022/05/25 10:12:57;;;;;;;;;;;20.40;53.90;;;;;;5092025;28;20309;-62
2022/05/25 10:15:31;;;;;;;;;;;21.10;53.00;;;;;;5079970;28;19924;-61
2022/05/25 10:17:56;;;;;;;;;;;21.40;49.20;;;;;;5085925;28;19928;-63
2022/05/25 10:20:22;;;;;;;;;;;21.20;52.00;;;;;;5090502;28;19924;-62
2022/05/25 10:22:50;;;;;;;;;;;21.30;50.70;;;;;;5095058;28;20390;-62
2022/05/25 10:25:26;;;;;;;;;;;21.20;51.60;;;;;;5094904;28;19942;-62
2022/05/25 10:27:52;;;;;;;;;;;20.90;52.70;;;;;;5096082;28;19952;-61
2022/05/25 10:38:49;;;;;;;;;;;19.20;56.40;;;;;;5086470;28;20015;-61
2022/05/25 10:44:20;;;;;;;;;;;19.00;58.60;;;;;;5093638;28;19928;-62
2022/05/25 10:46:51;;;;;;;;;;;18.70;57.70;;;;;;5087555;28;19974;-61
2022/05/25 10:49:23;;;;;;;;;;;18.50;59.50;;;;;;5085624;28;19958;-60
2022/05/25 10:51:50;;;;;;;;;;;19.30;58.90;;;;;;5087264;28;20228;-60
2022/05/25 10:57:17;;;;;;;;;;;20.80;56.10;;;;;;5089288;28;19928;-62
2022/05/25 10:59:48;;;;;;;;;;;21.20;52.90;;;;;;5094545;28;19924;-62
2022/05/25 11:02:29;;;;;;;;;;;21.50;52.00;;;;;;5084489;28;20014;-62
2022/05/25 11:05:00;;;;;;;;;;;21.30;52.00;;;;;;5075516;28;19924;-63
2022/05/25 11:07:34;;;;;;;;;;;21.10;51.50;;;;;;5088221;28;19927;-61
2022/05/25 11:10:02;;;;;;;;;;;21.00;53.60;;;;;;5092987;28;19951;-63
2022/05/25 11:12:46;;;;;;;;;;;21.30;53.20;;;;;;5086310;28;20355;-61
2022/05/25 11:15:30;;;;;;;;;;;21.00;50.50;;;;;;5092039;28;20389;-62
2022/05/25 11:18:05;;;;;;;;;;;21.00;51.20;;;;;;5077386;28;19928;-62
2022/05/25 11:20:56;;;;;;;;;;;20.80;53.00;;;;;;5079070;28;19920;-62
2022/05/25 11:23:25;;;;;;;;;;;20.90;51.20;;;;;;5046914;28;19948;-61
2022/05/25 11:26:09;;;;;;;;;;;20.50;53.10;;;;;;5090507;28;20296;-61
2022/05/25 11:28:34;;;;;;;;;;;20.40;52.90;;;;;;5093391;28;19981;-63
2022/05/25 11:31:19;;;;;;;;;;;20.20;53.50;;;;;;5076417;28;19921;-62
2022/05/25 11:33:51;;;;;;;;;;;20.60;51.90;;;;;;5087268;28;19973;-62
2022/05/25 11:36:26;;;;;;;;;;;21.00;50.00;;;;;;5084971;28;19920;-61
2022/05/25 11:38:51;;;;;;;;;;;20.70;48.40;;;;;;5075592;28;19928;-61
2022/05/25 11:41:26;;;;;;;;;;;20.80;47.70;;;;;;5085966;28;19930;-63
2022/05/25 11:44:07;;;;;;;;;;;21.00;49.50;;;;;;5086092;28;19928;-63
2022/05/25 11:46:41;;;;;;;;;;;20.70;48.10;;;;;;5066389;28;19934;-61
2022/05/25 11:49:26;;;;;;;;;;;21.10;48.30;;;;;;5086462;28;19926;-61
2022/05/25 11:51:58;;;;;;;;;;;20.70;47.20;;;;;;5086802;28;20353;-61
2022/05/25 11:54:42;;;;;;;;;;;20.40;48.10;;;;;;5074556;28;19927;-61
2022/05/25 11:57:27;;;;;;;;;;;20.20;48.50;;;;;;5089901;28;19958;-61
2022/05/25 11:59:55;;;;;;;;;;;20.30;50.70;;;;;;5093427;28;20342;-61
2022/05/25 12:02:47;;;;;;;;;;;19.80;49.10;;;;;;5094400;28;19920;-62
2022/05/25 12:05:22;;;;;;;;;;;19.60;49.80;;;;;;5069537;28;19935;-61
2022/05/25 12:07:56;;;;;;;;;;;19.50;50.20;;;;;;5081738;28;19921;-61
2022/05/25 12:10:31;;;;;;;;;;;19.30;51.60;;;;;;5080979;28;20285;-62
2022/05/25 12:12:59;;;;;;;;;;;19.20;52.70;;;;;;5080873;28;19977;-61
2022/05/25 12:15:39;;;;;;;;;;;18.80;52.90;;;;;;5082786;28;19920;-62
2022/05/25 12:18:04;;;;;;;;;;;18.50;52.10;;;;;;5072682;28;19943;-61
2022/05/25 12:20:36;;;;;;;;;;;18.40;53.90;;;;;;5088342;28;19920;-62
2022/05/25 12:23:04;;;;;;;;;;;17.40;66.60;;;;;;5092181;28;20058;-62
2022/05/25 12:25:30;;;;;;;;;;;15.50;84.50;;;;;;5089045;28;19935;-62
2022/05/25 12:27:57;;;;;;;;;;;15.40;90.10;;;;;;5078386;28;19955;-61
2022/05/25 12:30:22;;;;;;;;;;;15.40;93.20;;;;;;5085930;28;19931;-62
2022/05/25 12:32:48;;;;;;;;;;;15.50;94.40;;;;;;5091478;28;19927;-61
2022/05/25 12:35:15;;;;;;;;;;;16.00;91.10;;;;;;5073821;28;19920;-61
2022/05/25 12:37:42;;;;;;;;;;;16.30;91.60;;;;;;5088223;28;19920;-61
2022/05/25 12:40:09;;;;;;;;;;;16.70;89.40;;;;;;5090522;28;20006;-61
2022/05/25 12:42:36;;;;;;;;;;;17.10;87.90;;;;;;5090933;28;19920;-60
2022/05/25 12:50:54;;;;;;;;;;;18.50;77.40;;;;;;5089373;28;20308;-61
2022/05/25 12:53:29;;;;;;;;;;;18.70;73.30;;;;;;5083648;28;19927;-61
2022/05/25 12:55:56;;;;;;;;;;;19.20;75.60;;;;;;5090247;28;19960;-61
2022/05/25 12:58:32;;;;;;;;;;;19.30;71.70;;;;;;5082558;28;19971;-65
2022/05/25 13:01:02;;;;;;;;;;;19.30;69.50;;;;;;5085525;28;20340;-65
2022/05/25 13:03:36;;;;;;;;;;;18.90;68.50;;;;;;5088852;28;19942;-65
2022/05/25 13:06:02;;;;;;;;;;;18.50;69.10;;;;;;5086636;28;19928;-64
2022/05/25 13:08:46;;;;;;;;;;;18.20;71.10;;;;;;5081052;28;19920;-65
2022/05/25 13:11:30;;;;;;;;;;;17.80;71.10;;;;;;5074479;28;19924;-65
2022/05/25 13:13:58;;;;;;;;;;;17.70;73.90;;;;;;5074735;28;19943;-65
2022/05/25 13:16:48;;;;;;;;;;;18.50;70.10;;;;;;5073996;28;20054;-65
2022/05/25 13:19:29;;;;;;;;;;;19.20;67.90;;;;;;5074161;28;19963;-65
2022/05/25 13:22:03;;;;;;;;;;;20.20;64.30;;;;;;5081352;28;19942;-65
2022/05/25 13:24:47;;;;;;;;;;;21.10;64.10;;;;;;5073504;28;20448;-66
2022/05/25 13:27:16;;;;;;;;;;;21.20;60.80;;;;;;5082370;28;19943;-65
2022/05/25 13:30:04;;;;;;;;;;;21.10;59.60;;;;;;5074037;28;19964;-63
2022/05/25 13:32:45;;;;;;;;;;;20.80;58.80;;;;;;5081329;28;19927;-62
2022/05/25 13:35:27;;;;;;;;;;;19.90;56.90;;;;;;5071553;28;19931;-61
2022/05/25 13:37:57;;;;;;;;;;;20.20;55.40;;;;;;5071906;28;19931;-62
2022/05/25 13:40:24;;;;;;;;;;;19.80;56.40;;;;;;5074207;28;19924;-61
2022/05/25 13:42:50;;;;;;;;;;;19.60;57.90;;;;;;5073203;28;20359;-61
2022/05/25 13:45:24;;;;;;;;;;;19.50;58.10;;;;;;5090415;28;20012;-60
2022/05/25 13:47:53;;;;;;;;;;;19.30;56.00;;;;;;5092436;28;19927;-62
2022/05/25 13:50:28;;;;;;;;;;;19.20;54.40;;;;;;5077645;28;19925;-62
2022/05/25 13:52:53;;;;;;;;;;;19.30;54.70;;;;;;5088245;28;19940;-62
2022/05/25 13:55:35;;;;;;;;;;;19.30;54.10;;;;;;5092718;28;20298;-62
2022/05/25 13:58:01;;;;;;;;;;;19.80;53.70;;;;;;5073157;28;19927;-61
2022/05/25 14:00:26;;;;;;;;;;;20.00;55.40;;;;;;5080181;28;19921;-61
2022/05/25 14:03:06;;;;;;;;;;;20.00;53.40;;;;;;5090055;28;19920;-63
2022/05/25 14:05:37;;;;;;;;;;;19.80;53.60;;;;;;5069240;28;20064;-62
2022/05/25 14:08:05;;;;;;;;;;;19.80;53.80;;;;;;5074431;28;19978;-62
2022/05/25 14:13:18;;;;;;;;;;;19.60;54.30;;;;;;5089368;28;20368;-62
2022/05/25 14:16:04;;;;;;;;;;;19.60;54.80;;;;;;5073408;28;19932;-62
2022/05/25 14:18:46;;;;;;;;;;;19.50;52.70;;;;;;5073701;28;20384;-62
2022/05/25 14:21:30;;;;;;;;;;;19.50;51.90;;;;;;5070468;28;19921;-63
2022/05/25 14:23:56;;;;;;;;;;;19.50;52.40;;;;;;5099075;28;19974;-62
2022/05/25 14:26:26;;;;;;;;;;;19.40;53.40;;;;;;5085438;28;19967;-62
2022/05/25 14:28:52;;;;;;;;;;;19.20;52.30;;;;;;5084661;28;19924;-62
2022/05/25 14:31:20;;;;;;;;;;;19.20;52.10;;;;;;5089203;28;19993;-62
2022/05/25 14:33:46;;;;;;;;;;;19.30;53.60;;;;;;5083010;28;19921;-61
2022/05/25 14:36:14;;;;;;;;;;;19.10;53.00;;;;;;5071642;28;19924;-62
2022/05/25 14:38:41;;;;;;;;;;;19.10;52.70;;;;;;5071023;28;19935;-62
2022/05/25 14:41:21;;;;;;;;;;;18.90;54.50;;;;;;5077091;28;19962;-63
2022/05/25 14:43:50;;;;;;;;;;;18.90;54.10;;;;;;5080539;28;19920;-62
2022/05/25 14:46:24;;;;;;;;;;;18.90;53.60;;;;;;5076125;28;19928;-62
2022/05/25 14:48:53;;;;;;;;;;;19.00;54.40;;;;;;5087459;28;19927;-63
2022/05/25 14:51:20;;;;;;;;;;;18.90;52.50;;;;;;5066659;28;19924;-63
2022/05/25 14:53:46;;;;;;;;;;;19.00;53.40;;;;;;5080452;28;19927;-63
2022/05/25 14:56:19;;;;;;;;;;;19.10;54.20;;;;;;5078020;28;19928;-63
2022/05/25 14:58:48;;;;;;;;;;;19.10;54.00;;;;;;5073165;28;19974;-62
2022/05/25 15:01:15;;;;;;;;;;;19.30;55.00;;;;;;5069123;28;19951;-61
2022/05/25 15:03:45;;;;;;;;;;;19.10;53.50;;;;;;5073954;28;20007;-62
2022/05/25 15:06:15;;;;;;;;;;;19.10;51.90;;;;;;5085011;28;19924;-62
2022/05/25 15:08:42;;;;;;;;;;;19.00;52.10;;;;;;5092595;28;19935;-63
2022/05/25 15:11:21;;;;;;;;;;;18.90;52.30;;;;;;5074810;28;19974;-62
2022/05/25 15:19:22;;;;;;;;;;;18.80;51.50;;;;;;5083215;28;20010;-62